createdAt,value
2018-02-19T00:01:31.421Z,97094.02
2018-02-19T00:03:57.266Z,97098.19
2018-02-19T00:06:26.496Z,97096.98
2018-02-19T00:08:52.386Z,97094.02
2018-02-19T00:11:22.117Z,97093.91
2018-02-19T00:13:47.968Z,97096.48
2018-02-19T00:16:15.271Z,97093.56
2018-02-19T00:18:41.117Z,97091.34
2018-02-19T00:21:10.529Z,97087.73
2018-02-19T00:23:36.425Z,97081.28
2018-02-19T00:26:05.664Z,97075.63
2018-02-19T00:28:31.502Z,97079.12
2018-02-19T00:30:59.065Z,97079.52
2018-02-19T00:33:24.888Z,97078.88
2018-02-19T00:35:50.715Z,97079.66
2018-02-19T00:38:16.571Z,97066.84
2018-02-19T00:40:42.397Z,97079.77
2018-02-19T00:43:11.289Z,97079.71
2018-02-19T00:45:37.174Z,97067.64
2018-02-19T00:48:06.144Z,97063.39
2018-02-19T00:50:32.014Z,97059.02
2018-02-19T00:53:01.180Z,97054.93
2018-02-19T00:55:27.028Z,97052.08
2018-02-19T00:57:56.404Z,97058.98
2018-02-19T01:00:22.258Z,97051.33
2018-02-19T01:02:49.643Z,97044.42
2018-02-19T01:05:15.480Z,97040.59
2018-02-19T01:07:44.285Z,97045.70
2018-02-19T01:10:10.166Z,97043.97
2018-02-19T01:12:36.012Z,97035.84
2018-02-19T01:15:01.865Z,97030.36
2018-02-19T01:17:27.735Z,97024.05
2018-02-19T01:19:56.692Z,97028.33
2018-02-19T01:22:22.584Z,97023.30
2018-02-19T01:24:51.940Z,97022.09
2018-02-19T01:27:17.811Z,97018.66
2018-02-19T01:29:47.090Z,97015.85
2018-02-19T01:32:12.954Z,97012.28
2018-02-19T01:34:40.387Z,97012.66
2018-02-19T01:37:06.220Z,97010.95
2018-02-19T01:39:35.499Z,97009.95
2018-02-19T01:42:01.361Z,97004.73
2018-02-19T01:44:31.021Z,97000.09
2018-02-19T01:46:56.875Z,96997.80
2018-02-19T01:49:22.742Z,96990.16
2018-02-19T01:51:48.599Z,96984.31
2018-02-19T01:54:14.441Z,96993.16
2018-02-19T01:56:41.150Z,96977.47
2018-02-19T01:59:07.021Z,96975.58
2018-02-19T02:01:35.657Z,96972.97
2018-02-19T02:04:01.510Z,96974.57
2018-02-19T02:08:58.378Z,96968.17
2018-02-19T02:11:25.977Z,96967.94
2018-02-19T02:13:51.814Z,96963.09
2018-02-19T02:16:20.893Z,96960.07
2018-02-19T02:18:46.733Z,96959.33
2018-02-19T02:21:16.110Z,96955.31
2018-02-19T02:23:41.988Z,96943.84
2018-02-19T02:26:07.835Z,96944.13
2018-02-19T02:28:33.690Z,96942.00
2018-02-19T02:30:59.502Z,96938.33
2018-02-19T02:33:26.699Z,96937.06
2018-02-19T02:35:52.573Z,96938.08
2018-02-19T02:38:21.874Z,96938.11
2018-02-19T02:40:47.756Z,96925.08
2018-02-19T02:43:17.094Z,96930.38
2018-02-19T02:45:42.938Z,96923.64
2018-02-19T02:48:12.310Z,96926.63
2018-02-19T02:50:38.159Z,96920.70
2018-02-19T02:53:07.658Z,96921.57
2018-02-19T02:55:33.495Z,96929.31
2018-02-19T02:58:00.727Z,96925.11
2018-02-19T03:00:26.607Z,96923.84
2018-02-19T03:02:52.529Z,96924.85
2018-02-19T03:05:18.355Z,96921.83
2018-02-19T03:07:44.173Z,96918.44
2018-02-19T03:10:11.888Z,96916.02
2018-02-19T03:12:37.749Z,96911.98
2018-02-19T03:15:06.490Z,96913.09
2018-02-19T03:17:32.336Z,96917.05
2018-02-19T03:20:00.952Z,96917.32
2018-02-19T03:22:26.854Z,96916.58
2018-02-19T03:27:23.567Z,96909.94
2018-02-19T03:29:51.227Z,96916.36
2018-02-19T03:32:17.092Z,96917.05
2018-02-19T03:34:46.598Z,96920.52
2018-02-19T03:37:12.476Z,96924.77
2018-02-19T03:39:38.322Z,96925.47
2018-02-19T03:42:04.168Z,96925.59
2018-02-19T03:44:30.031Z,96930.17
2018-02-19T03:46:57.563Z,96931.93
2018-02-19T03:49:23.422Z,96921.34
2018-02-19T03:51:52.761Z,96918.88
2018-02-19T03:54:18.615Z,96915.92
2018-02-19T03:56:47.841Z,96908.02
2018-02-19T03:59:13.668Z,96912.74
2018-02-19T04:01:42.831Z,96910.44
2018-02-19T04:04:08.689Z,96908.80
2018-02-19T04:06:36.092Z,96906.78
2018-02-19T04:09:01.972Z,96901.20
2018-02-19T04:11:30.729Z,96908.73
2018-02-19T04:13:56.566Z,96901.77
2018-02-19T04:16:22.415Z,96900.39
2018-02-19T04:18:48.334Z,96897.72
2018-02-19T04:21:14.161Z,96894.36
2018-02-19T04:23:43.586Z,96892.77
2018-02-19T04:26:09.422Z,96893.38
2018-02-19T04:28:38.842Z,96886.46
2018-02-19T04:31:04.708Z,96883.16
2018-02-19T04:33:31.861Z,96875.61
2018-02-19T04:35:57.701Z,96875.36
2018-02-19T04:40:54.426Z,96869.08
2018-02-19T04:43:21.988Z,96872.39
2018-02-19T04:45:53.897Z,96863.63
2018-02-19T04:48:20.102Z,96871.34
2018-02-19T04:50:45.994Z,96868.53
2018-02-19T04:53:11.834Z,96858.97
2018-02-19T04:55:37.698Z,96849.33
2018-02-19T04:58:03.560Z,96854.73
2018-02-19T05:00:29.398Z,96856.41
2018-02-19T05:02:55.275Z,96854.48
2018-02-19T05:05:22.621Z,96855.18
2018-02-19T05:07:48.477Z,96848.17
2018-02-19T05:12:45.212Z,96848.73
2018-02-19T05:15:12.021Z,96850.55
2018-02-19T05:17:37.877Z,96853.55
2018-02-19T05:20:07.076Z,96859.63
2018-02-19T05:22:32.919Z,96859.94
2018-02-19T05:25:02.708Z,96857.73
2018-02-19T05:27:28.529Z,96853.00
2018-02-19T05:29:55.296Z,96856.75
2018-02-19T05:32:21.130Z,96849.95
2018-02-19T05:34:47.006Z,96858.75
2018-02-19T05:37:13.659Z,96857.77
2018-02-19T05:39:39.570Z,96855.44
2018-02-19T05:42:08.739Z,96853.80
2018-02-19T05:44:34.619Z,96850.19
2018-02-19T05:47:04.008Z,96852.61
2018-02-19T05:49:29.858Z,96848.13
2018-02-19T05:51:58.989Z,96848.02
2018-02-19T05:54:24.854Z,96851.41
2018-02-19T05:56:52.106Z,96854.67
2018-02-19T05:59:17.968Z,96856.75
2018-02-19T06:01:46.761Z,96852.27
2018-02-19T06:04:12.626Z,96852.00
2018-02-19T06:06:38.461Z,96852.41
2018-02-19T06:09:04.327Z,96851.38
2018-02-19T06:11:30.205Z,96851.67
2018-02-19T06:13:59.474Z,96855.66
2018-02-19T06:16:25.307Z,96859.19
2018-02-19T06:18:54.778Z,96854.03
2018-02-19T06:21:20.625Z,96855.09
2018-02-19T06:23:48.024Z,96855.72
2018-02-19T06:26:13.889Z,96856.55
2018-02-19T06:28:43.404Z,96856.72
2018-02-19T06:31:09.271Z,96855.84
2018-02-19T06:33:38.790Z,96858.76
2018-02-19T06:36:04.657Z,96859.98
2018-02-19T06:38:32.350Z,96862.88
2018-02-19T06:40:58.220Z,96862.34
2018-02-19T06:43:24.079Z,96863.89
2018-02-19T06:45:49.905Z,96860.19
2018-02-19T06:48:15.732Z,96858.56
2018-02-19T06:50:45.004Z,96855.02
2018-02-19T06:53:10.836Z,96853.86
2018-02-19T06:55:38.455Z,96855.48
2018-02-19T06:58:04.317Z,96860.98
2018-02-19T07:00:33.337Z,96856.31
2018-02-19T07:02:59.165Z,96857.03
2018-02-19T07:05:27.877Z,96858.57
2018-02-19T07:07:53.725Z,96855.16
2018-02-19T07:10:23.085Z,96859.63
2018-02-19T07:12:48.983Z,96856.56
2018-02-19T07:15:18.392Z,96852.83
2018-02-19T07:17:44.241Z,96854.01
2018-02-19T07:20:10.080Z,96846.53
2018-02-19T07:22:35.935Z,96844.31
2018-02-19T07:25:01.874Z,96841.36
2018-02-19T07:27:29.362Z,96837.20
2018-02-19T07:29:55.192Z,96840.14
2018-02-19T07:32:24.571Z,96847.08
2018-02-19T07:34:50.415Z,96837.20
2018-02-19T07:37:19.823Z,96841.76
2018-02-19T07:39:45.670Z,96836.68
2018-02-19T07:42:13.014Z,96838.44
2018-02-19T07:44:38.840Z,96831.56
2018-02-19T07:49:35.600Z,96829.41
2018-02-19T07:52:04.489Z,96830.46
2018-02-19T07:54:30.330Z,96829.56
2018-02-19T07:56:56.190Z,96826.06
2018-02-19T07:59:22.034Z,96828.07
2018-02-19T08:01:47.909Z,96828.49
2018-02-19T08:04:14.480Z,96835.23
2018-02-19T08:06:40.337Z,96828.98
2018-02-19T08:09:09.087Z,96824.73
2018-02-19T08:11:34.979Z,96824.77
2018-02-19T08:14:03.856Z,96823.82
2018-02-19T08:16:29.717Z,96814.87
2018-02-19T08:18:58.525Z,96819.04
2018-02-19T08:21:24.388Z,96821.85
2018-02-19T08:23:53.719Z,96809.77
2018-02-19T08:26:19.545Z,96808.07
2018-02-19T08:28:49.424Z,96814.56
2018-02-19T08:31:15.272Z,96811.96
2018-02-19T08:33:41.128Z,96803.88
2018-02-19T08:36:07.010Z,96800.91
2018-02-19T08:38:32.858Z,96807.04
2018-02-19T08:41:00.241Z,96805.98
2018-02-19T08:43:26.111Z,96803.25
2018-02-19T08:45:55.350Z,96800.22
2018-02-19T08:48:21.897Z,96804.05
2018-02-19T08:50:49.509Z,96805.11
2018-02-19T08:53:15.392Z,96803.40
2018-02-19T08:55:44.727Z,96800.19
2018-02-19T08:58:10.570Z,96801.16
2018-02-19T09:00:40.303Z,96798.20
2018-02-19T09:03:06.192Z,96801.56
2018-02-19T09:05:33.483Z,96798.57
2018-02-19T09:07:59.324Z,96796.32
2018-02-19T09:10:25.176Z,96793.18
2018-02-19T09:12:51.007Z,96799.67
2018-02-19T09:15:16.869Z,96802.89
2018-02-19T09:17:46.592Z,96806.49
2018-02-19T09:20:12.425Z,96806.43
2018-02-19T09:22:39.534Z,96802.85
2018-02-19T09:25:05.404Z,96805.27
2018-02-19T09:27:34.026Z,96800.75
2018-02-19T09:29:59.873Z,96796.07
2018-02-19T09:32:29.159Z,96799.46
2018-02-19T09:34:55.003Z,96800.56
2018-02-19T09:37:23.715Z,96793.86
2018-02-19T09:39:49.593Z,96795.19
2018-02-19T09:44:46.358Z,96785.39
2018-02-19T09:47:12.206Z,96788.20
2018-02-19T09:49:38.050Z,96788.67
2018-02-19T09:52:03.899Z,96780.17
2018-02-19T09:54:30.357Z,96788.91
2018-02-19T09:56:56.205Z,96786.36
2018-02-19T09:59:24.940Z,96779.27
2018-02-19T10:01:50.815Z,96781.46
2018-02-19T10:04:31.589Z,96778.11
2018-02-19T10:06:57.458Z,96779.51
2018-02-19T10:09:23.300Z,96769.64
2018-02-19T10:11:49.171Z,96766.95
2018-02-19T10:14:15.018Z,96762.37
2018-02-19T10:16:40.873Z,96767.22
2018-02-19T10:19:06.735Z,96766.43
2018-02-19T10:21:32.582Z,96758.71
2018-02-19T10:23:58.450Z,96759.20
2018-02-19T10:26:24.287Z,96760.11
2018-02-19T10:28:50.248Z,96763.54
2018-02-19T10:31:16.085Z,96763.23
2018-02-19T10:33:41.932Z,96757.08
2018-02-19T10:36:11.493Z,96755.94
2018-02-19T10:38:37.352Z,96753.61
2018-02-19T10:41:06.488Z,96756.28
2018-02-19T10:43:32.362Z,96759.49
2018-02-19T10:45:59.804Z,96749.68
2018-02-19T10:48:27.413Z,96745.19
2018-02-19T10:50:55.034Z,96744.41
2018-02-19T10:53:20.888Z,96742.75
2018-02-19T10:55:50.129Z,96743.92
2018-02-19T10:58:15.998Z,96743.08
2018-02-19T11:00:44.673Z,96736.47
2018-02-19T11:03:10.568Z,96735.45
2018-02-19T11:05:36.447Z,96734.81
2018-02-19T11:08:02.296Z,96731.08
2018-02-19T11:10:28.176Z,96732.02
2018-02-19T11:12:56.009Z,96728.20
2018-02-19T11:15:21.886Z,96736.77
2018-02-19T11:17:51.098Z,96736.45
2018-02-19T11:20:16.954Z,96732.59
2018-02-19T11:22:45.976Z,96731.63
2018-02-19T11:25:11.821Z,96736.95
2018-02-19T11:27:40.978Z,96736.13
2018-02-19T11:30:06.871Z,96733.14
2018-02-19T11:32:35.958Z,96732.66
2018-02-19T11:35:01.829Z,96730.66
2018-02-19T11:37:27.649Z,96722.33
2018-02-19T11:39:53.501Z,96719.06
2018-02-19T11:42:19.347Z,96723.58
2018-02-19T11:44:45.979Z,96718.34
2018-02-19T11:47:11.838Z,96712.56
2018-02-19T11:52:08.605Z,96704.88
2018-02-19T11:54:37.636Z,96701.44
2018-02-19T11:57:03.510Z,96702.42
2018-02-19T11:59:30.678Z,96697.62
2018-02-19T12:01:56.544Z,96686.89
2018-02-19T12:04:25.828Z,96688.22
2018-02-19T12:06:51.680Z,96681.95
2018-02-19T12:09:20.985Z,96684.48
2018-02-19T12:11:46.846Z,96685.05
2018-02-19T12:14:12.710Z,96679.63
2018-02-19T12:16:38.597Z,96677.61
2018-02-19T12:19:04.446Z,96668.51
2018-02-19T12:21:31.877Z,96660.52
2018-02-19T12:23:57.757Z,96661.84
2018-02-19T12:26:27.160Z,96640.42
2018-02-19T12:28:53.045Z,96662.73
2018-02-19T12:31:20.713Z,96664.41
2018-02-19T12:33:46.559Z,96666.16
2018-02-19T12:38:43.356Z,96655.71
2018-02-19T12:41:10.958Z,96654.77
2018-02-19T12:43:36.789Z,96646.73
2018-02-19T12:46:06.196Z,96649.58
2018-02-19T12:48:32.572Z,96642.36
2018-02-19T12:50:58.433Z,96643.26
2018-02-19T12:53:24.280Z,96641.55
2018-02-19T12:55:50.140Z,96638.45
2018-02-19T12:58:17.361Z,96637.59
2018-02-19T13:00:43.236Z,96637.94
2018-02-19T13:03:12.734Z,96637.05
2018-02-19T13:05:38.563Z,96640.53
2018-02-19T13:08:07.556Z,96631.98
2018-02-19T13:10:33.449Z,96638.64
2018-02-19T13:13:00.917Z,96635.38
2018-02-19T13:15:26.750Z,96631.77
2018-02-19T13:17:55.568Z,96630.04
2018-02-19T13:20:21.503Z,96634.52
2018-02-19T13:22:50.333Z,96629.23
2018-02-19T13:25:16.186Z,96628.51
2018-02-19T13:27:42.048Z,96628.20
2018-02-19T13:30:07.904Z,96627.56
2018-02-19T13:32:33.771Z,96625.45
2018-02-19T13:35:03.392Z,96624.59
2018-02-19T13:37:29.258Z,96621.50
2018-02-19T13:39:56.860Z,96624.94
2018-02-19T13:42:22.775Z,96619.11
2018-02-19T13:44:51.968Z,96607.34
2018-02-19T13:47:17.853Z,96613.20
2018-02-19T13:49:47.566Z,96611.27
2018-02-19T13:52:13.619Z,96606.47
2018-02-19T13:54:42.702Z,96612.87
2018-02-19T13:57:08.534Z,96605.14
2018-02-19T13:59:36.391Z,96607.16
2018-02-19T14:02:02.294Z,96598.66
2018-02-19T14:04:28.128Z,96599.85
2018-02-19T14:06:54.014Z,96595.40
2018-02-19T14:09:19.891Z,96599.60
2018-02-19T14:11:48.941Z,96596.13
2018-02-19T14:14:14.811Z,96589.00
2018-02-19T14:16:42.179Z,96596.80
2018-02-19T14:19:08.041Z,96593.41
2018-02-19T14:21:37.390Z,96590.85
2018-02-19T14:24:03.287Z,96589.75
2018-02-19T14:26:32.482Z,96584.56
2018-02-19T14:28:58.335Z,96574.55
2018-02-19T14:31:27.615Z,96578.37
2018-02-19T14:33:53.460Z,96572.89
2018-02-19T14:36:21.059Z,96579.16
2018-02-19T14:38:46.906Z,96583.67
2018-02-19T14:41:12.804Z,96581.14
2018-02-19T14:43:38.654Z,96583.28
2018-02-19T14:46:04.525Z,96580.20
2018-02-19T14:48:33.482Z,96583.58
2018-02-19T14:50:59.355Z,96581.31
2018-02-19T14:53:28.320Z,96586.33
2018-02-19T14:55:54.170Z,96580.83
2018-02-19T14:58:21.954Z,96573.20
2018-02-19T15:00:47.801Z,96577.63
2018-02-19T15:05:44.374Z,96580.44
2018-02-19T15:08:12.293Z,96574.14
2018-02-19T15:10:38.173Z,96577.36
2018-02-19T15:13:07.682Z,96571.70
2018-02-19T15:15:33.569Z,96578.09
2018-02-19T15:17:59.405Z,96569.72
2018-02-19T15:20:26.165Z,96562.34
2018-02-19T15:22:52.056Z,96567.34
2018-02-19T15:25:17.928Z,96567.98
2018-02-19T15:27:43.907Z,96574.88
2018-02-19T15:32:42.059Z,96564.26
2018-02-19T15:35:07.922Z,96572.14
2018-02-19T15:37:33.769Z,96568.83
2018-02-19T15:40:03.183Z,96547.80
2018-02-19T15:42:29.028Z,96569.89
2018-02-19T15:44:58.197Z,96560.12
2018-02-19T15:47:24.083Z,96565.73
2018-02-19T15:49:53.277Z,96566.50
2018-02-19T15:52:19.147Z,96561.75
2018-02-19T15:54:45.019Z,96561.48
2018-02-19T15:57:10.892Z,96557.83
2018-02-19T15:59:36.742Z,96555.98
2018-02-19T16:02:03.529Z,96556.03
2018-02-19T16:04:29.399Z,96554.95
2018-02-19T16:06:58.250Z,96554.02
2018-02-19T16:09:24.128Z,96550.93
2018-02-19T16:11:52.838Z,96548.60
2018-02-19T16:14:18.704Z,96547.48
2018-02-19T16:16:47.911Z,96543.24
2018-02-19T16:19:13.827Z,96542.20
2018-02-19T16:24:15.384Z,96559.28
2018-02-19T16:26:41.250Z,96554.92
2018-02-19T16:29:07.072Z,96556.20
2018-02-19T16:31:32.931Z,96550.29
2018-02-19T16:33:58.782Z,96561.54
2018-02-19T16:36:24.658Z,96556.83
2018-02-19T16:38:50.514Z,96556.52
2018-02-19T16:41:16.378Z,96559.09
2018-02-19T16:43:44.024Z,96560.30
2018-02-19T16:46:09.905Z,96558.50
2018-02-19T16:48:41.326Z,96556.28
2018-02-19T16:51:07.175Z,96557.71
2018-02-19T16:53:33.055Z,96554.84
2018-02-19T16:55:58.952Z,96546.78
2018-02-19T16:58:28.210Z,96545.89
2018-02-19T17:00:54.050Z,96547.36
2018-02-19T17:03:23.353Z,96550.47
2018-02-19T17:05:49.225Z,96555.11
2018-02-19T17:08:15.254Z,96556.43
2018-02-19T17:10:41.234Z,96556.50
2018-02-19T17:13:07.074Z,96548.95
2018-02-19T17:15:34.326Z,96551.66
2018-02-19T17:18:00.179Z,96543.22
2018-02-19T17:20:29.949Z,96551.92
2018-02-19T17:22:55.827Z,96551.07
2018-02-19T17:25:23.549Z,96558.53
2018-02-19T17:27:49.446Z,96546.66
2018-02-19T17:30:18.833Z,96545.91
2018-02-19T17:32:44.748Z,96547.27
2018-02-19T17:35:13.666Z,96551.66
2018-02-19T17:37:39.524Z,96549.80
2018-02-19T17:40:08.830Z,96545.91
2018-02-19T17:42:34.929Z,96553.43
2018-02-19T17:45:00.773Z,96552.25
2018-02-19T17:47:26.630Z,96556.39
2018-02-19T17:49:52.505Z,96551.36
2018-02-19T17:52:19.610Z,96554.43
2018-02-19T17:54:45.445Z,96553.93
2018-02-19T17:57:14.855Z,96563.02
2018-02-19T17:59:40.690Z,96571.12
2018-02-19T18:02:10.130Z,96564.31
2018-02-19T18:04:35.993Z,96559.10
2018-02-19T18:07:05.098Z,96551.75
2018-02-19T18:09:30.954Z,96544.80
2018-02-19T18:11:58.360Z,96547.73
2018-02-19T18:14:24.238Z,96545.16
2018-02-19T18:16:52.889Z,96541.53
2018-02-19T18:19:18.719Z,96537.32
2018-02-19T18:21:44.718Z,96532.66
2018-02-19T18:24:10.567Z,96528.77
2018-02-19T18:26:36.412Z,96527.23
2018-02-19T18:29:05.863Z,96525.81
2018-02-19T18:31:32.098Z,96524.42
2018-02-19T18:33:59.265Z,96523.20
2018-02-19T18:36:25.199Z,96521.60
2018-02-19T18:38:53.936Z,96522.85
2018-02-19T18:41:19.905Z,96517.19
2018-02-19T18:43:48.776Z,96520.86
2018-02-19T18:46:14.718Z,96519.22
2018-02-19T18:48:44.836Z,96521.86
2018-02-19T18:51:10.723Z,96522.25
2018-02-19T18:53:38.077Z,96519.68
2018-02-19T18:56:03.970Z,96526.88
2018-02-19T18:58:29.816Z,96526.45
2018-02-19T19:00:55.645Z,96525.28
2018-02-19T19:03:21.498Z,96523.10
2018-02-19T19:05:51.008Z,96522.64
2018-02-19T19:08:29.439Z,96529.41
2018-02-19T19:10:55.320Z,96518.33
2018-02-19T19:13:21.207Z,96527.38
2018-02-19T19:15:47.093Z,96527.48
2018-02-19T19:18:12.965Z,96526.48
2018-02-19T19:20:38.818Z,96526.70
2018-02-19T19:23:04.679Z,96522.00
2018-02-19T19:25:30.532Z,96524.14
2018-02-19T19:27:56.399Z,96517.19
2018-02-19T19:30:23.766Z,96518.54
2018-02-19T19:32:49.623Z,96516.08
2018-02-19T19:35:15.493Z,96520.81
2018-02-19T19:37:41.361Z,96520.75
2018-02-19T19:40:07.226Z,96524.06
2018-02-19T19:42:36.861Z,96519.75
2018-02-19T19:45:02.719Z,96521.36
2018-02-19T19:47:30.153Z,96517.11
2018-02-19T19:49:55.980Z,96517.47
2018-02-19T19:52:24.729Z,96514.91
2018-02-19T19:54:50.608Z,96515.29
2018-02-19T19:57:19.497Z,96518.35
2018-02-19T19:59:45.366Z,96514.80
2018-02-19T20:02:14.167Z,96514.27
2018-02-19T20:04:40.051Z,96507.38
2018-02-19T20:07:08.638Z,96508.67
2018-02-19T20:09:34.489Z,96511.55
2018-02-19T20:12:00.340Z,96513.62
2018-02-19T20:14:26.187Z,96505.89
2018-02-19T20:16:52.052Z,96507.59
2018-02-19T20:19:20.932Z,96502.11
2018-02-19T20:21:46.790Z,96504.23
2018-02-19T20:24:15.965Z,96502.84
2018-02-19T20:26:41.830Z,96500.21
2018-02-19T20:29:11.022Z,96502.78
2018-02-19T20:31:36.893Z,96498.86
2018-02-19T20:34:06.137Z,96500.88
2018-02-19T20:36:32.003Z,96504.16
2018-02-19T20:39:01.002Z,96505.77
2018-02-19T20:41:26.864Z,96502.35
2018-02-19T20:43:56.078Z,96512.41
2018-02-19T20:46:21.961Z,96509.87
2018-02-19T20:48:47.826Z,96501.14
2018-02-19T20:51:13.678Z,96501.85
2018-02-19T20:53:39.549Z,96498.40
2018-02-19T20:56:06.021Z,96499.58
2018-02-19T20:58:31.888Z,96502.46
2018-02-19T21:01:00.591Z,96494.34
2018-02-19T21:03:26.456Z,96493.52
2018-02-19T21:05:55.880Z,96497.02
2018-02-19T21:08:21.731Z,96491.77
2018-02-19T21:10:51.329Z,96490.31
2018-02-19T21:13:17.152Z,96484.50
2018-02-19T21:15:46.159Z,96485.22
2018-02-19T21:18:12.004Z,96479.27
2018-02-19T21:20:39.589Z,96478.27
2018-02-19T21:23:05.443Z,96476.47
2018-02-19T21:25:31.327Z,96472.77
2018-02-19T21:27:57.185Z,96466.42
2018-02-19T21:30:23.048Z,96472.97
2018-02-19T21:32:52.422Z,96471.22
2018-02-19T21:35:18.294Z,96467.89
2018-02-19T21:37:45.774Z,96467.61
2018-02-19T21:40:11.666Z,96463.87
2018-02-19T21:42:40.494Z,96464.94
2018-02-19T21:45:06.333Z,96449.91
2018-02-19T21:47:35.227Z,96458.74
2018-02-19T21:50:01.106Z,96453.90
2018-02-19T21:52:30.378Z,96449.98
2018-02-19T21:54:56.267Z,96442.19
2018-02-19T21:57:26.007Z,96440.47
2018-02-19T21:59:51.866Z,96440.56
2018-02-19T22:02:17.708Z,96439.27
2018-02-19T22:04:43.566Z,96440.41
2018-02-19T22:07:09.398Z,96442.78
2018-02-19T22:09:36.509Z,96436.02
2018-02-19T22:12:02.346Z,96438.38
2018-02-19T22:14:31.658Z,96438.89
2018-02-19T22:16:57.539Z,96444.56
2018-02-19T22:19:27.026Z,96443.14
2018-02-19T22:21:52.910Z,96445.98
2018-02-19T22:24:22.360Z,96450.66
2018-02-19T22:26:48.214Z,96439.91
2018-02-19T22:29:15.363Z,96441.36
2018-02-19T22:31:41.217Z,96438.37
2018-02-19T22:34:10.109Z,96442.96
2018-02-19T22:36:35.970Z,96440.79
2018-02-19T22:39:01.823Z,96437.41
2018-02-19T22:41:27.702Z,96441.75
2018-02-19T22:43:53.540Z,96434.48
2018-02-19T22:46:22.897Z,96429.72
2018-02-19T22:48:48.770Z,96432.60
2018-02-19T22:51:17.970Z,96434.95
2018-02-19T22:53:43.834Z,96433.27
2018-02-19T22:56:11.205Z,96432.05
2018-02-19T22:58:37.089Z,96431.52
2018-02-19T23:01:06.452Z,96431.60
2018-02-19T23:03:32.310Z,96426.47
2018-02-19T23:06:01.626Z,96429.13
2018-02-19T23:08:27.490Z,96428.36
2018-02-19T23:10:56.628Z,96424.66
2018-02-19T23:13:22.509Z,96424.48
2018-02-19T23:15:48.358Z,96429.72
2018-02-19T23:18:14.203Z,96423.20
2018-02-19T23:20:40.075Z,96427.30
2018-02-19T23:23:07.637Z,96418.25
2018-02-19T23:25:33.503Z,96422.70
2018-02-19T23:28:02.994Z,96422.73
2018-02-19T23:30:28.878Z,96423.38
2018-02-19T23:32:56.260Z,96420.56
2018-02-19T23:35:22.140Z,96411.70
2018-02-19T23:37:50.757Z,96414.97
2018-02-19T23:40:16.633Z,96413.50
2018-02-19T23:42:45.581Z,96410.69
2018-02-19T23:45:11.413Z,96403.95
2018-02-19T23:50:08.027Z,96406.97
2018-02-19T23:52:33.896Z,96408.69
2018-02-19T23:54:59.731Z,96408.73
2018-02-19T23:57:25.579Z,96410.41
2018-02-19T23:59:52.242Z,96406.14
